Time;durP1;ratioP1;P1;durP2;ratioP2;P2;SDS_P1;SDS_P2;PMS_P1;PMS_P2;Temp;Humidity;BMP_temperature;BMP_pressure;BME280_temperature;BME280_humidity;BME280_pressure;Samples;Min_cycle;Max_cycle;Signal;HPM_P1;HPM_P2
2022/06/04 00:00:51;;;;;;;4.65;1.67;;;24.20;96.70;;;;;;5054091;28;20079;-79
2022/06/04 00:03:19;;;;;;;4.43;2.13;;;24.20;96.70;;;;;;5058624;28;20063;-78
2022/06/04 00:05:50;;;;;;;4.97;2.35;;;24.20;96.70;;;;;;5046366;28;20049;-79
2022/06/04 00:08:20;;;;;;;4.07;2.38;;;24.20;96.70;;;;;;5057614;28;20090;-79
2022/06/04 00:16:25;;;;;;;8.85;2.40;;;23.90;96.70;;;;;;5066175;28;20044;-79
2022/06/04 00:18:53;;;;;;;6.10;2.35;;;23.80;96.70;;;;;;5063351;28;20048;-79
2022/06/04 00:21:22;;;;;;;5.93;1.90;;;23.80;96.70;;;;;;5041229;28;20410;-78
2022/06/04 00:23:52;;;;;;;4.80;2.10;;;23.90;96.70;;;;;;5042168;28;20052;-78
2022/06/04 00:26:20;;;;;;;4.95;1.92;;;23.90;96.70;;;;;;5057856;28;20447;-79
2022/06/04 00:28:48;;;;;;;4.25;2.03;;;23.90;96.70;;;;;;5060950;28;20136;-79
2022/06/04 00:31:18;;;;;;;4.25;1.80;;;23.90;96.70;;;;;;5050930;28;20068;-80
2022/06/04 00:33:46;;;;;;;4.13;1.70;;;23.90;96.70;;;;;;5052291;28;20478;-79
2022/06/04 00:36:14;;;;;;;3.72;2.13;;;23.80;96.70;;;;;;5057178;28;20036;-79
2022/06/04 00:38:44;;;;;;;4.60;1.88;;;23.60;96.70;;;;;;5048007;28;20047;-80
2022/06/04 00:41:22;;;;;;;9.85;1.77;;;23.60;96.70;;;;;;5059490;28;20422;-79
2022/06/04 00:44:04;;;;;;;5.22;2.17;;;23.60;96.70;;;;;;5054309;28;20048;-79
2022/06/04 00:47:07;;;;;;;5.10;2.53;;;23.50;96.70;;;;;;5053459;28;20060;-79
2022/06/04 00:49:36;;;;;;;5.57;2.03;;;23.40;96.70;;;;;;5056313;28;20145;-80
2022/06/04 00:52:07;;;;;;;5.07;2.20;;;23.50;96.70;;;;;;5061277;28;20048;-80
2022/06/04 00:54:35;;;;;;;6.88;2.65;;;23.50;96.70;;;;;;5055010;28;20040;-80
2022/06/04 00:57:24;;;;;;;4.47;2.10;;;23.50;96.70;;;;;;5054184;28;20048;-79
2022/06/04 01:00:01;;;;;;;4.80;1.75;;;23.60;96.70;;;;;;5053080;28;20044;-80
2022/06/04 01:02:40;;;;;;;3.97;1.90;;;23.50;96.70;;;;;;5048326;28;20049;-79
2022/06/04 01:05:18;;;;;;;4.97;1.83;;;23.50;96.70;;;;;;5051603;28;20490;-79
2022/06/04 01:07:59;;;;;;;5.13;1.95;;;23.50;96.70;;;;;;5047564;28;20099;-79
2022/06/04 01:10:39;;;;;;;4.72;1.85;;;23.40;96.70;;;;;;5053063;28;20211;-80
2022/06/04 01:13:26;;;;;;;4.80;2.13;;;23.40;96.70;;;;;;5057265;28;20088;-76
2022/06/04 01:16:04;;;;;;;5.90;2.22;;;23.50;96.70;;;;;;5039882;28;20445;-79
2022/06/04 01:18:46;;;;;;;3.90;1.60;;;23.40;96.70;;;;;;5051409;28;20059;-79
2022/06/04 01:21:22;;;;;;;6.70;1.98;;;23.30;96.70;;;;;;5060777;28;20060;-79
2022/06/04 01:24:35;;;;;;;2.97;1.77;;;23.30;96.70;;;;;;5053166;28;20138;-79
2022/06/04 01:27:21;;;;;;;4.35;1.45;;;23.30;96.70;;;;;;5007891;28;20049;-79
2022/06/04 01:29:57;;;;;;;5.45;1.67;;;23.30;96.70;;;;;;5056429;28;20052;-79
2022/06/04 01:32:30;;;;;;;5.07;1.67;;;23.20;96.70;;;;;;5047198;28;20507;-78
2022/06/04 01:35:06;;;;;;;2.92;1.75;;;23.20;96.70;;;;;;5049600;28;20522;-78
2022/06/04 01:37:38;;;;;;;2.63;1.58;;;23.20;96.70;;;;;;5052614;28;20552;-80
2022/06/04 01:43:00;;;;;;;4.72;1.70;;;23.20;96.70;;;;;;5058749;28;20051;-78
2022/06/04 01:45:31;;;;;;;4.82;1.58;;;23.20;96.70;;;;;;5061181;28;20153;-78
2022/06/04 01:48:02;;;;;;;3.80;1.67;;;23.20;96.70;;;;;;5062779;28;20049;-79
2022/06/04 01:50:35;;;;;;;3.90;1.50;;;23.20;96.70;;;;;;5054971;28;20643;-77
2022/06/04 01:53:04;;;;;;;4.20;1.60;;;23.20;96.70;;;;;;5042723;28;20070;-78
2022/06/04 01:55:41;;;;;;;5.60;1.65;;;23.20;96.70;;;;;;5054685;28;20071;-78
2022/06/04 01:58:16;;;;;;;5.85;1.90;;;23.20;96.70;;;;;;5054174;28;20051;-78
2022/06/04 02:00:51;;;;;;;4.50;1.65;;;23.20;96.70;;;;;;5036679;28;20080;-78
2022/06/04 02:03:24;;;;;;;4.25;1.75;;;23.10;96.70;;;;;;5058731;28;20079;-78
2022/06/04 02:05:56;;;;;;;3.40;1.83;;;23.20;96.70;;;;;;5041225;28;20139;-79
2022/06/04 02:08:29;;;;;;;6.30;1.85;;;23.20;96.70;;;;;;5053710;28;20087;-77
2022/06/04 02:11:01;;;;;;;8.35;2.25;;;23.10;96.70;;;;;;5056037;28;20102;-79
2022/06/04 02:13:31;;;;;;;4.00;1.90;;;23.00;96.70;;;;;;5037810;28;20057;-77
2022/06/04 02:16:04;;;;;;;4.85;1.98;;;23.00;96.70;;;;;;5056320;28;20145;-77
2022/06/04 02:18:33;;;;;;;5.40;2.03;;;22.80;96.70;;;;;;5060427;28;20063;-78
2022/06/04 02:21:01;;;;;;;3.75;2.00;;;22.80;96.70;;;;;;5072402;28;20127;-78
2022/06/04 02:23:30;;;;;;;5.40;1.92;;;22.80;96.70;;;;;;5060879;28;20059;-78
2022/06/04 02:25:58;;;;;;;7.30;2.20;;;22.90;96.70;;;;;;5042738;28;20054;-78
2022/06/04 02:28:27;;;;;;;5.68;1.80;;;22.80;96.70;;;;;;5061220;28;20143;-80
2022/06/04 02:31:05;;;;;;;2.65;1.80;;;22.80;96.70;;;;;;5062920;28;20041;-80
2022/06/04 02:33:42;;;;;;;3.58;1.60;;;22.90;96.70;;;;;;5055214;28;20044;-80
2022/06/04 02:36:17;;;;;;;2.72;1.90;;;22.80;96.70;;;;;;5058893;28;20486;-80
2022/06/04 02:38:50;;;;;;;2.95;1.65;;;22.90;96.70;;;;;;5048575;28;20045;-80
2022/06/04 02:41:31;;;;;;;5.22;1.90;;;22.80;96.70;;;;;;5055557;28;20048;-80
2022/06/04 02:44:07;;;;;;;4.10;2.13;;;22.80;96.70;;;;;;5052396;28;20059;-79
2022/06/04 02:46:41;;;;;;;6.60;2.30;;;22.90;96.70;;;;;;5062739;28;20504;-81
2022/06/04 02:49:12;;;;;;;7.50;3.00;;;22.90;96.70;;;;;;5039008;28;20396;-80
2022/06/04 02:51:44;;;;;;;5.93;2.53;;;22.90;96.70;;;;;;5042015;28;20059;-80
2022/06/04 02:54:16;;;;;;;2.78;1.73;;;22.80;96.70;;;;;;5059386;28;20576;-79
2022/06/04 02:56:46;;;;;;;11.88;2.75;;;22.70;96.70;;;;;;5056320;28;20563;-80
2022/06/04 02:59:17;;;;;;;3.03;2.17;;;22.70;96.70;;;;;;5054146;28;20051;-79
2022/06/04 03:01:51;;;;;;;5.40;2.00;;;22.70;96.70;;;;;;5062549;28;20550;-79
2022/06/04 03:04:19;;;;;;;4.55;2.70;;;22.80;96.70;;;;;;5054036;28;20063;-80
2022/06/04 03:06:48;;;;;;;4.38;2.33;;;22.70;96.70;;;;;;5054320;28;20047;-79
2022/06/04 03:09:19;;;;;;;6.40;2.20;;;22.70;96.70;;;;;;5057757;28;20051;-79
2022/06/04 03:11:49;;;;;;;6.18;2.95;;;22.70;96.70;;;;;;5054883;28;20048;-80
2022/06/04 03:14:18;;;;;;;4.95;2.40;;;22.60;96.70;;;;;;5054884;28;20071;-79
2022/06/04 03:16:49;;;;;;;8.93;2.90;;;22.60;96.70;;;;;;5056672;28;20045;-80
2022/06/04 03:19:17;;;;;;;5.40;2.10;;;22.60;96.70;;;;;;5043957;28;20044;-79
2022/06/04 03:21:45;;;;;;;4.18;1.85;;;22.70;96.70;;;;;;5039846;28;20045;-80
2022/06/04 03:24:14;;;;;;;3.83;1.88;;;22.70;96.70;;;;;;5059036;28;20045;-80
2022/06/04 03:26:43;;;;;;;4.95;1.90;;;22.70;96.70;;;;;;5052425;28;20107;-80
2022/06/04 03:29:11;;;;;;;6.82;2.30;;;22.60;96.70;;;;;;5052975;28;20052;-79
2022/06/04 03:31:39;;;;;;;6.65;2.10;;;22.60;96.70;;;;;;5036311;28;20055;-79
2022/06/04 03:34:09;;;;;;;6.13;2.10;;;22.40;96.70;;;;;;5055707;28;20040;-79
2022/06/04 03:36:37;;;;;;;5.45;2.28;;;22.50;96.70;;;;;;5055960;28;20045;-80
2022/06/04 03:39:08;;;;;;;3.35;2.10;;;22.50;96.70;;;;;;5050970;28;20045;-80
2022/06/04 03:41:40;;;;;;;4.65;1.90;;;22.50;96.70;;;;;;5052170;28;20106;-80
2022/06/04 03:44:08;;;;;;;3.92;2.15;;;22.50;96.70;;;;;;5059120;28;20036;-79
2022/06/04 03:46:37;;;;;;;6.90;2.17;;;22.50;96.70;;;;;;5060025;28;20410;-80
2022/06/04 03:49:05;;;;;;;10.23;2.80;;;22.50;96.70;;;;;;5056985;28;20037;-80
2022/06/04 03:51:37;;;;;;;5.63;2.35;;;22.40;96.70;;;;;;5055883;28;20917;-78
2022/06/04 03:54:06;;;;;;;4.65;2.10;;;22.30;96.70;;;;;;5057698;28;20589;-79
2022/06/04 03:56:34;;;;;;;8.15;2.08;;;22.40;96.70;;;;;;5055384;28;20918;-78
2022/06/04 03:59:02;;;;;;;4.28;1.95;;;22.30;96.70;;;;;;5063108;28;20114;-80
2022/06/04 04:01:31;;;;;;;8.85;2.10;;;22.20;96.70;;;;;;5053632;28;20041;-80
2022/06/04 04:04:00;;;;;;;3.08;2.20;;;22.30;96.70;;;;;;5057772;28;20051;-80
2022/06/04 04:06:31;;;;;;;5.60;2.22;;;22.20;96.70;;;;;;5057993;28;20037;-79
2022/06/04 04:09:01;;;;;;;7.15;2.30;;;22.30;96.70;;;;;;5053760;28;20048;-80
2022/06/04 04:11:29;;;;;;;6.68;2.50;;;22.30;96.70;;;;;;5049046;28;20503;-80
2022/06/04 04:13:57;;;;;;;5.85;2.20;;;22.30;96.70;;;;;;5052956;28;20052;-80
2022/06/04 04:16:25;;;;;;;7.60;2.28;;;22.20;96.70;;;;;;5060436;28;20474;-79
2022/06/04 04:18:53;;;;;;;4.60;2.20;;;22.30;96.70;;;;;;5053400;28;20041;-80
2022/06/04 04:21:22;;;;;;;3.45;2.13;;;22.20;96.70;;;;;;5060395;28;20733;-79
2022/06/04 04:23:51;;;;;;;4.38;2.15;;;22.10;96.70;;;;;;5058760;28;20042;-80
2022/06/04 04:26:20;;;;;;;3.28;1.90;;;22.10;96.70;;;;;;5055355;28;20119;-80
2022/06/04 04:28:49;;;;;;;3.53;2.33;;;22.30;96.70;;;;;;5041752;28;20103;-80
2022/06/04 04:31:20;;;;;;;2.97;2.05;;;22.30;96.70;;;;;;5059294;28;20044;-80
2022/06/04 04:33:48;;;;;;;3.42;2.30;;;22.20;96.70;;;;;;5050069;28;20045;-80
2022/06/04 04:36:16;;;;;;;5.43;2.10;;;22.20;96.70;;;;;;5051624;28;20045;-79
2022/06/04 04:38:45;;;;;;;5.05;2.17;;;22.20;96.70;;;;;;5051388;28;20139;-80
2022/06/04 04:41:14;;;;;;;5.20;2.28;;;22.30;96.70;;;;;;5054881;28;20138;-79
2022/06/04 04:43:44;;;;;;;6.40;2.17;;;22.30;96.70;;;;;;5050391;28;20426;-79
2022/06/04 04:46:13;;;;;;;4.63;2.00;;;22.40;96.70;;;;;;5060698;28;20044;-79
2022/06/04 04:48:42;;;;;;;5.82;2.40;;;22.60;96.70;;;;;;5033313;28;20060;-80
2022/06/04 04:51:12;;;;;;;4.00;2.22;;;22.60;96.70;;;;;;5049806;28;20646;-80
2022/06/04 04:53:40;;;;;;;4.53;2.20;;;22.60;96.70;;;;;;5056216;28;20110;-80
2022/06/04 04:56:08;;;;;;;6.28;2.38;;;22.60;96.70;;;;;;5058189;28;20079;-80
2022/06/04 04:58:37;;;;;;;6.13;1.95;;;22.60;96.70;;;;;;5056330;28;20047;-81
2022/06/04 05:01:14;;;;;;;5.70;1.70;;;22.80;96.70;;;;;;5058305;28;20040;-80
2022/06/04 05:03:44;;;;;;;6.53;2.20;;;22.90;96.70;;;;;;5051127;28;20064;-81
2022/06/04 05:06:14;;;;;;;5.20;2.40;;;22.90;96.70;;;;;;5055907;28;20132;-79
2022/06/04 05:08:43;;;;;;;4.82;2.75;;;22.90;96.70;;;;;;5037423;28;20469;-80
2022/06/04 05:11:13;;;;;;;9.55;4.00;;;22.80;96.70;;;;;;5052565;28;20041;-81
2022/06/04 05:13:42;;;;;;;7.30;3.47;;;22.80;96.70;;;;;;5043528;28;20143;-80
2022/06/04 05:16:11;;;;;;;7.50;3.90;;;22.80;96.70;;;;;;5043726;28;20126;-80
2022/06/04 05:18:39;;;;;;;7.97;3.65;;;23.00;96.70;;;;;;5060044;28;20044;-80
2022/06/04 05:21:09;;;;;;;5.88;3.70;;;23.10;96.70;;;;;;5062834;28;20075;-81
2022/06/04 05:23:37;;;;;;;5.80;3.55;;;23.00;96.70;;;;;;5058673;28;20040;-80
2022/06/04 05:26:05;;;;;;;5.78;3.45;;;23.10;96.70;;;;;;5061023;28;20065;-81
2022/06/04 05:28:33;;;;;;;6.32;2.80;;;23.10;96.70;;;;;;5061966;28;20041;-81
2022/06/04 05:31:02;;;;;;;9.02;3.97;;;23.00;96.70;;;;;;5063783;28;20063;-82
2022/06/04 05:33:32;;;;;;;10.50;4.20;;;23.00;96.70;;;;;;5066241;28;20044;-79
2022/06/04 05:36:01;;;;;;;8.30;4.30;;;23.00;96.70;;;;;;5059026;28;20564;-79
2022/06/04 05:38:34;;;;;;;7.13;4.10;;;23.00;96.70;;;;;;5060251;28;20045;-79
2022/06/04 05:41:05;;;;;;;9.23;4.28;;;23.10;96.70;;;;;;5058943;28;20054;-79
2022/06/04 05:43:34;;;;;;;10.02;4.40;;;23.20;96.70;;;;;;5065783;28;20044;-80
2022/06/04 05:46:04;;;;;;;9.15;4.05;;;23.30;96.70;;;;;;5063707;28;20155;-80
2022/06/04 05:48:36;;;;;;;9.88;3.95;;;23.40;96.70;;;;;;5063971;28;20546;-80
2022/06/04 05:51:05;;;;;;;6.85;3.17;;;23.40;96.70;;;;;;5058836;28;20102;-78
2022/06/04 05:53:33;;;;;;;5.65;2.92;;;23.40;96.70;;;;;;5040364;28;20048;-82
2022/06/04 05:56:01;;;;;;;66.20;5.82;;;23.40;96.70;;;;;;5039356;28;20143;-81
2022/06/04 05:58:29;;;;;;;6.40;3.05;;;23.50;96.70;;;;;;5061217;28;20037;-79
2022/06/04 06:01:01;;;;;;;7.63;3.63;;;23.40;96.70;;;;;;5062884;28;20123;-84
2022/06/04 06:03:29;;;;;;;6.75;2.97;;;23.50;96.70;;;;;;5044888;28;20335;-77
2022/06/04 06:06:01;;;;;;;8.07;3.45;;;23.50;96.70;;;;;;5041175;28;20053;-78
2022/06/04 06:08:51;;;;;;;6.07;3.25;;;23.60;96.70;;;;;;5061525;28;20049;-78
2022/06/04 06:11:20;;;;;;;6.95;3.15;;;23.60;96.70;;;;;;5068775;28;20041;-77
2022/06/04 06:13:50;;;;;;;5.78;3.22;;;23.60;96.70;;;;;;5063292;28;20061;-77
2022/06/04 06:16:21;;;;;;;7.88;3.45;;;23.70;96.70;;;;;;5062066;28;20204;-78
2022/06/04 06:18:49;;;;;;;11.57;3.80;;;23.70;96.70;;;;;;5058767;28;20044;-79
2022/06/04 06:21:21;;;;;;;6.90;3.90;;;23.80;96.70;;;;;;5059698;28;20040;-78
2022/06/04 06:23:50;;;;;;;6.03;3.38;;;23.80;96.70;;;;;;5051571;28;20049;-80
2022/06/04 06:26:21;;;;;;;7.93;3.30;;;23.90;96.70;;;;;;5057064;28;20071;-80
2022/06/04 06:28:50;;;;;;;6.85;3.00;;;24.00;96.70;;;;;;5055748;28;20040;-80
2022/06/04 06:31:20;;;;;;;7.60;3.33;;;24.00;96.70;;;;;;5058860;28;20040;-78
2022/06/04 06:33:49;;;;;;;8.32;3.35;;;24.00;96.70;;;;;;5057306;28;20453;-79
2022/06/04 06:36:20;;;;;;;8.55;3.55;;;24.10;96.70;;;;;;5053265;28;20039;-78
2022/06/04 06:38:49;;;;;;;9.07;3.58;;;24.30;96.70;;;;;;5062719;28;20098;-79
2022/06/04 06:41:20;;;;;;;5.60;3.00;;;24.40;96.70;;;;;;5062660;28;20098;-79
2022/06/04 06:43:52;;;;;;;6.38;2.72;;;24.50;96.70;;;;;;5062877;28;20048;-82
2022/06/04 06:46:24;;;;;;;7.18;2.50;;;24.60;96.70;;;;;;5060456;28;20189;-81
2022/06/04 06:48:55;;;;;;;8.20;6.20;;;24.60;96.70;;;;;;5058344;28;20044;-81
2022/06/04 06:51:27;;;;;;;5.90;5.05;;;24.70;96.70;;;;;;5065100;28;20048;-80
2022/06/04 06:53:55;;;;;;;5.82;3.83;;;24.70;96.70;;;;;;5065731;28;20145;-82
2022/06/04 06:56:26;;;;;;;5.80;3.15;;;24.80;96.70;;;;;;5063053;28;20087;-80
2022/06/04 06:58:55;;;;;;;8.27;2.90;;;24.90;96.70;;;;;;5054790;28;20049;-80
2022/06/04 07:01:27;;;;;;;7.38;4.07;;;24.90;96.70;;;;;;5060960;28;20048;-80
2022/06/04 07:03:56;;;;;;;6.93;3.42;;;24.90;96.70;;;;;;5055831;28;20153;-79
2022/06/04 07:06:31;;;;;;;5.93;3.13;;;25.10;96.70;;;;;;5058016;28;20040;-80
2022/06/04 07:09:01;;;;;;;4.38;2.78;;;25.10;96.70;;;;;;5038007;28;20141;-79
2022/06/04 07:11:30;;;;;;;4.82;3.17;;;25.00;96.70;;;;;;5064276;28;20041;-80
2022/06/04 07:13:58;;;;;;;4.90;2.95;;;25.00;96.70;;;;;;5053373;28;20106;-80
2022/06/04 07:16:26;;;;;;;6.95;2.97;;;25.20;96.70;;;;;;5062127;28;20118;-79
2022/06/04 07:18:55;;;;;;;6.47;3.08;;;25.40;96.70;;;;;;5054342;28;20048;-82
2022/06/04 07:21:24;;;;;;;6.53;2.75;;;25.50;96.70;;;;;;5063192;28;20045;-80
2022/06/04 07:23:54;;;;;;;7.50;3.08;;;25.60;96.70;;;;;;5065591;28;20043;-84
2022/06/04 07:26:23;;;;;;;5.85;3.00;;;25.60;96.70;;;;;;5063751;28;20061;-84
2022/06/04 07:28:51;;;;;;;8.68;3.03;;;25.60;96.70;;;;;;5062982;28;20032;-85
2022/06/04 07:31:20;;;;;;;4.35;2.80;;;25.60;96.70;;;;;;5063769;28;20045;-81
2022/06/04 07:33:53;;;;;;;5.90;2.97;;;25.50;96.70;;;;;;5057233;28;20068;-82
2022/06/04 07:36:23;;;;;;;4.53;3.10;;;25.60;96.70;;;;;;5065576;28;20049;-84
2022/06/04 07:38:55;;;;;;;6.68;2.90;;;25.60;96.70;;;;;;5047262;28;20406;-86
2022/06/04 07:41:27;;;;;;;5.22;3.17;;;25.70;96.70;;;;;;5059555;28;20123;-83
2022/06/04 07:43:56;;;;;;;6.68;3.60;;;25.70;96.70;;;;;;5065513;28;20494;-83
2022/06/04 07:46:26;;;;;;;5.90;2.85;;;25.70;96.70;;;;;;5063345;28;20241;-82
2022/06/04 07:48:55;;;;;;;4.97;3.13;;;25.80;96.70;;;;;;5053980;28;20078;-81
2022/06/04 07:51:23;;;;;;;9.98;3.38;;;25.90;96.70;;;;;;5045964;28;20044;-81
2022/06/04 07:53:54;;;;;;;7.30;3.30;;;26.00;96.70;;;;;;5063255;28;20036;-81
2022/06/04 07:56:25;;;;;;;8.93;4.03;;;26.20;96.70;;;;;;5063084;28;20053;-82
2022/06/04 07:58:53;;;;;;;4.78;3.20;;;26.20;96.70;;;;;;5057376;28;20044;-81
2022/06/04 08:01:23;;;;;;;17.33;4.53;;;26.40;96.70;;;;;;5054813;28;20451;-81
2022/06/04 08:03:53;;;;;;;6.82;3.03;;;26.60;96.70;;;;;;5060002;28;20049;-83
2022/06/04 08:06:23;;;;;;;7.05;3.45;;;26.70;96.70;;;;;;5059104;28;20056;-84
2022/06/04 08:09:01;;;;;;;7.18;3.38;;;26.80;96.70;;;;;;5042868;28;20045;-79
2022/06/04 08:11:32;;;;;;;10.35;3.08;;;27.00;96.70;;;;;;5051961;28;20056;-80
2022/06/04 08:14:05;;;;;;;4.47;2.97;;;27.10;96.70;;;;;;5058166;28;20135;-81
2022/06/04 08:16:35;;;;;;;6.70;2.70;;;27.10;96.70;;;;;;5049022;28;20561;-80
2022/06/04 08:19:04;;;;;;;8.20;2.83;;;27.10;96.70;;;;;;5060765;28;20052;-79
2022/06/04 08:21:32;;;;;;;9.52;2.53;;;27.10;96.70;;;;;;5053291;28;20040;-79
2022/06/04 08:24:03;;;;;;;7.85;2.80;;;27.10;96.70;;;;;;5056916;28;20048;-79
2022/06/04 08:26:31;;;;;;;6.60;3.08;;;27.30;96.70;;;;;;5057305;28;20045;-79
2022/06/04 08:28:59;;;;;;;3.70;2.20;;;27.40;96.70;;;;;;5060526;28;20090;-78
2022/06/04 08:31:29;;;;;;;4.78;2.40;;;27.30;96.70;;;;;;5057461;28;20418;-80
2022/06/04 08:33:57;;;;;;;8.27;2.63;;;27.20;96.70;;;;;;5058316;28;20079;-79
2022/06/04 08:36:26;;;;;;;5.10;2.85;;;27.20;96.70;;;;;;5060897;28;20498;-80
2022/06/04 08:38:54;;;;;;;6.72;2.85;;;27.30;96.70;;;;;;5039030;28;20139;-81
2022/06/04 08:41:49;;;;;;;6.57;2.40;;;27.30;96.70;;;;;;5055195;28;20044;-81
2022/06/04 08:44:21;;;;;;;8.65;2.40;;;27.40;96.70;;;;;;5056752;28;20055;-81
2022/06/04 08:46:52;;;;;;;9.30;3.00;;;27.50;96.70;;;;;;5054299;28;20044;-77
2022/06/04 08:49:29;;;;;;;4.80;2.17;;;27.60;96.70;;;;;;5052102;28;20533;-79
2022/06/04 08:51:59;;;;;;;6.45;2.40;;;27.70;96.70;;;;;;5057257;28;20053;-76
2022/06/04 08:57:33;;;;;;;42.03;4.97;;;28.00;96.70;;;;;;5059178;28;20041;-74
2022/06/04 09:00:06;;;;;;;7.70;2.38;;;28.10;96.70;;;;;;5056612;28;20036;-75
2022/06/04 09:02:58;;;;;;;3.60;2.13;;;28.10;96.70;;;;;;5053399;28;20080;-74
2022/06/04 09:05:38;;;;;;;6.95;2.90;;;28.30;96.70;;;;;;5058058;28;20045;-73
2022/06/04 09:08:15;;;;;;;8.30;2.55;;;28.30;96.70;;;;;;5061244;28;20048;-73
2022/06/04 09:10:49;;;;;;;14.50;3.05;;;28.30;96.70;;;;;;5057720;28;20129;-74
2022/06/04 09:13:23;;;;;;;10.88;2.72;;;28.40;96.70;;;;;;5060981;28;20044;-74
2022/06/04 09:15:53;;;;;;;6.43;2.70;;;28.50;96.70;;;;;;5063192;28;20068;-73
2022/06/04 09:18:25;;;;;;;7.72;2.30;;;28.60;96.70;;;;;;5051638;28;20049;-74
2022/06/04 09:20:56;;;;;;;6.15;2.28;;;28.80;96.70;;;;;;5060635;28;20047;-74
2022/06/04 09:23:37;;;;;;;7.88;2.47;;;28.90;96.70;;;;;;5053404;28;20037;-74
2022/06/04 09:26:17;;;;;;;8.18;3.00;;;29.10;96.70;;;;;;5062529;28;20044;-74
2022/06/04 09:28:56;;;;;;;6.57;2.60;;;29.20;96.70;;;;;;5058724;28;20044;-74
2022/06/04 09:31:32;;;;;;;8.65;3.20;;;29.10;96.70;;;;;;5060878;28;20509;-75
2022/06/04 09:34:04;;;;;;;3.83;2.25;;;29.00;96.70;;;;;;5055576;28;20045;-74
2022/06/04 09:36:37;;;;;;;4.88;2.25;;;29.10;96.70;;;;;;5050419;28;20072;-79
2022/06/04 09:39:07;;;;;;;7.15;2.58;;;29.30;96.70;;;;;;5060993;28;20098;-79
2022/06/04 09:41:35;;;;;;;3.53;2.00;;;29.40;96.70;;;;;;5053887;28;20045;-78
2022/06/04 09:44:11;;;;;;;5.95;3.13;;;29.50;96.70;;;;;;5061450;28;20048;-79
2022/06/04 09:46:43;;;;;;;8.27;2.60;;;29.60;96.70;;;;;;5054153;28;20044;-79
2022/06/04 09:49:29;;;;;;;33.55;4.63;;;29.70;96.70;;;;;;5045717;28;20084;-78
2022/06/04 09:51:58;;;;;;;9.57;2.77;;;29.70;96.70;;;;;;5050698;28;20045;-77
2022/06/04 09:54:32;;;;;;;7.68;2.47;;;29.80;96.70;;;;;;5064624;28;20729;-79
2022/06/04 09:57:05;;;;;;;7.85;1.88;;;29.90;96.70;;;;;;5052659;28;20045;-80
2022/06/04 09:59:35;;;;;;;12.82;2.80;;;29.80;96.70;;;;;;5059974;28;20120;-80
2022/06/04 10:02:18;;;;;;;8.00;2.45;;;29.70;96.70;;;;;;5056123;28;20048;-81
2022/06/04 10:04:48;;;;;;;13.98;2.90;;;29.70;96.70;;;;;;5062825;28;20466;-80
2022/06/04 10:07:20;;;;;;;8.63;2.83;;;29.70;96.10;;;;;;5035103;28;20056;-79
2022/06/04 10:09:59;;;;;;;17.13;8.77;;;29.90;95.50;;;;;;5050637;28;20511;-79
2022/06/04 10:15:30;;;;;;;8.48;3.47;;;30.00;96.70;;;;;;5051880;28;20547;-80
2022/06/04 10:18:03;;;;;;;11.38;2.30;;;30.00;96.00;;;;;;5060003;28;20040;-81
2022/06/04 10:20:33;;;;;;;6.25;2.47;;;29.90;96.00;;;;;;5037714;28;20056;-78
2022/06/04 10:23:01;;;;;;;11.95;2.83;;;29.90;96.30;;;;;;5057292;28;20055;-79
2022/06/04 10:25:36;;;;;;;9.57;2.67;;;30.10;96.70;;;;;;5058124;28;20052;-80
2022/06/04 10:28:19;;;;;;;8.32;2.45;;;30.30;96.70;;;;;;5058941;28;20053;-78
2022/06/04 10:30:57;;;;;;;10.65;2.70;;;30.60;96.50;;;;;;5064859;28;20055;-80
2022/06/04 10:33:40;;;;;;;9.43;2.55;;;30.80;96.10;;;;;;5053794;28;20044;-78
2022/06/04 10:36:23;;;;;;;6.57;2.67;;;30.90;96.00;;;;;;5055390;28;20048;-79
2022/06/04 10:39:03;;;;;;;9.75;2.90;;;31.00;95.80;;;;;;5054963;28;20461;-82
2022/06/04 10:41:37;;;;;;;9.30;2.28;;;30.90;95.00;;;;;;5055913;28;20051;-80
2022/06/04 10:44:36;;;;;;;12.00;2.38;;;30.80;93.30;;;;;;5037775;28;20638;-80
2022/06/04 10:47:20;;;;;;;5.82;2.50;;;31.10;94.80;;;;;;5055829;28;20567;-81
2022/06/04 10:50:17;;;;;;;10.00;3.00;;;31.30;93.70;;;;;;5054207;28;20057;-78
2022/06/04 10:52:56;;;;;;;14.18;2.75;;;31.10;92.70;;;;;;5050112;28;20048;-80
2022/06/04 10:55:41;;;;;;;11.88;3.00;;;30.90;92.80;;;;;;5062007;28;20040;-81
2022/06/04 10:58:29;;;;;;;12.30;3.25;;;31.20;92.70;;;;;;5057634;28;20037;-79
2022/06/04 11:01:03;;;;;;;12.10;2.13;;;31.40;91.90;;;;;;5039805;28;20414;-80
2022/06/04 11:03:38;;;;;;;12.73;3.30;;;31.50;92.20;;;;;;5059976;28;20041;-81
2022/06/04 11:06:13;;;;;;;8.15;3.22;;;31.50;91.70;;;;;;5060334;28;20493;-80
2022/06/04 11:08:47;;;;;;;7.70;2.67;;;31.60;91.30;;;;;;5042390;28;20048;-81
2022/06/04 11:11:20;;;;;;;7.00;2.50;;;31.70;91.00;;;;;;5060919;28;20040;-79
2022/06/04 11:13:52;;;;;;;6.40;2.50;;;31.70;91.10;;;;;;5061788;28;20048;-79
2022/06/04 11:16:27;;;;;;;9.77;3.20;;;31.80;91.50;;;;;;5058015;28;20153;-80
2022/06/04 11:19:04;;;;;;;12.45;2.75;;;31.80;90.40;;;;;;5045196;28;20102;-81
2022/06/04 11:21:40;;;;;;;11.50;2.90;;;31.80;89.80;;;;;;5059493;28;20049;-80
2022/06/04 11:24:15;;;;;;;11.77;2.55;;;31.70;89.80;;;;;;5057801;28;20149;-79
2022/06/04 11:26:48;;;;;;;8.93;2.78;;;31.80;90.00;;;;;;5060406;28;20091;-79
2022/06/04 11:29:17;;;;;;;12.98;2.67;;;31.90;89.90;;;;;;5060307;28;20848;-78
2022/06/04 11:32:01;;;;;;;12.02;3.15;;;32.10;90.80;;;;;;5060272;28;20040;-78
2022/06/04 11:35:10;;;;;;;7.65;3.03;;;32.40;88.60;;;;;;5057345;28;20498;-80
2022/06/04 11:38:06;;;;;;;5.63;2.03;;;32.30;90.60;;;;;;5062050;28;20516;-77
2022/06/04 11:40:39;;;;;;;7.95;2.42;;;32.50;91.10;;;;;;5058091;28;20036;-79
2022/06/04 11:43:17;;;;;;;7.82;2.22;;;32.50;89.80;;;;;;5057182;28;20044;-78
2022/06/04 11:46:00;;;;;;;13.80;2.80;;;32.70;90.20;;;;;;5057239;28;20130;-78
2022/06/04 11:48:53;;;;;;;7.80;2.42;;;32.80;90.20;;;;;;5059169;28;20123;-77
2022/06/04 11:51:43;;;;;;;8.02;2.33;;;32.60;89.20;;;;;;5075803;28;20052;-80
2022/06/04 11:54:28;;;;;;;10.77;3.10;;;32.50;89.00;;;;;;5059038;28;20390;-80
2022/06/04 11:57:06;;;;;;;11.60;2.78;;;32.60;88.50;;;;;;5068032;28;20419;-81
2022/06/04 11:59:50;;;;;;;13.85;2.88;;;32.70;88.80;;;;;;5058821;28;20558;-79
2022/06/04 12:02:24;;;;;;;8.80;2.92;;;33.00;88.90;;;;;;5068656;28;20380;-81
2022/06/04 12:05:03;;;;;;;10.98;2.78;;;33.40;89.00;;;;;;5062306;28;20083;-79
2022/06/04 12:07:38;;;;;;;7.85;2.50;;;33.60;88.20;;;;;;5037999;28;20052;-78
2022/06/04 12:10:41;;;;;;;14.80;3.20;;;33.70;86.70;;;;;;5057726;28;20052;-78
2022/06/04 12:13:23;;;;;;;12.75;2.50;;;33.90;87.70;;;;;;5053536;28;20040;-79
2022/06/04 12:15:55;;;;;;;15.52;4.72;;;34.10;86.30;;;;;;5054287;28;20136;-81
2022/06/04 12:18:28;;;;;;;9.02;2.63;;;34.20;88.60;;;;;;5054737;28;20049;-76
2022/06/04 12:26:37;;;;;;;10.30;2.78;;;34.30;86.20;;;;;;5048845;28;20123;-77
2022/06/04 12:29:33;;;;;;;8.95;2.33;;;34.50;86.30;;;;;;5054272;28;20143;-77
2022/06/04 12:32:04;;;;;;;8.30;2.17;;;34.60;86.80;;;;;;5053376;28;20579;-77
2022/06/04 12:34:36;;;;;;;14.93;3.13;;;34.80;86.60;;;;;;5054833;28;20053;-79
2022/06/04 12:37:21;;;;;;;8.07;2.60;;;35.00;86.70;;;;;;5041905;28;20076;-79
2022/06/04 12:40:00;;;;;;;11.27;4.35;;;35.20;85.30;;;;;;5053048;28;20467;-80
2022/06/04 12:42:33;;;;;;;9.43;2.55;;;35.30;86.10;;;;;;5054546;28;20751;-79
2022/06/04 12:45:05;;;;;;;10.38;2.60;;;35.30;85.30;;;;;;5059485;28;20041;-80
2022/06/04 12:47:36;;;;;;;9.52;2.58;;;35.20;83.90;;;;;;5061936;28;20714;-80
2022/06/04 12:50:19;;;;;;;14.07;3.17;;;35.10;85.80;;;;;;5050293;28;20059;-81
2022/06/04 12:53:01;;;;;;;13.45;3.47;;;35.00;85.80;;;;;;5051714;28;20128;-79
2022/06/04 12:55:36;;;;;;;13.57;2.88;;;35.30;85.50;;;;;;5048377;28;20106;-79
2022/06/04 12:58:28;;;;;;;9.88;2.50;;;35.40;85.10;;;;;;5053992;28;20048;-79
2022/06/04 13:01:02;;;;;;;8.65;2.72;;;35.70;85.40;;;;;;5047316;28;20049;-78
2022/06/04 13:03:37;;;;;;;8.20;2.38;;;35.80;84.90;;;;;;5052162;28;20064;-81
2022/06/04 13:06:58;;;;;;;12.25;2.63;;;35.80;84.10;;;;;;5060038;28;20147;-81
2022/06/04 13:09:46;;;;;;;10.00;3.08;;;36.00;84.70;;;;;;5016204;28;20641;-78
2022/06/04 13:12:25;;;;;;;6.97;2.75;;;36.20;83.30;;;;;;5038055;28;20612;-82
2022/06/04 13:15:15;;;;;;;26.20;17.90;;;36.40;84.20;;;;;;5010864;28;20053;-81
2022/06/04 13:17:46;;;;;;;16.88;3.60;;;36.70;83.90;;;;;;5016176;28;20118;-83
2022/06/04 13:20:33;;;;;;;10.43;2.63;;;36.70;83.20;;;;;;5038476;28;20384;-81
2022/06/04 13:23:12;;;;;;;10.65;3.28;;;36.80;83.70;;;;;;5044021;28;20125;-79
2022/06/04 13:25:49;;;;;;;7.82;2.15;;;36.80;81.90;;;;;;5045569;28;20056;-81
2022/06/04 13:28:32;;;;;;;10.45;2.63;;;36.70;83.30;;;;;;4998287;28;20081;-79
2022/06/04 13:31:06;;;;;;;12.43;2.80;;;37.00;83.90;;;;;;5034448;28;20087;-80
2022/06/04 13:33:37;;;;;;;12.00;2.60;;;37.20;83.30;;;;;;5021031;28;20081;-79
2022/06/04 13:36:07;;;;;;;10.00;3.00;;;37.20;82.30;;;;;;5041020;28;20410;-80
2022/06/04 13:38:39;;;;;;;10.18;2.40;;;37.50;82.50;;;;;;5039327;28;20165;-81